Weather at Miho Airfield

Public forecast

Using degrees Celsius for public forecast. Weather courtesy of forecast.io.

Closest aviation weather report (METAR) to Miho Airfield

Report is more than 2 hours old.

Closest report is JASDF Shizuhama Air Base, 16.6 nm (30.8 km) SW. Retrieved 2021/09/18 16:07 UTC (2 hours ago):

RJNY 181607Z VRB01KT 9999 FEW008 BKN025 BKN060 24/24 Q1006 RMK 1ST008 5CU025 5SC060 A2972

Closest aviation forecast (TAF) to Miho Airfield

Closest forecast is Mount Fuji Shizuoka Airport, 21.4 nm (39.6 km) SW. Retrieved 2021/09/18 18:00 UTC (28 minutes ago):

TAF RJNS 181705Z 1818/2000 34004KT 9999 FEW010 BECMG 1822/1900 09006KT BECMG 1912/1915 35004KT BECMG 1921/2000 06005KT